Time;durP1;ratioP1;P1;durP2;ratioP2;P2;SDS_P1;SDS_P2;PMS_P1;PMS_P2;Temp;Humidity;BMP_temperature;BMP_pressure;BME280_temperature;BME280_humidity;BME280_pressure;Samples;Min_cycle;Max_cycle;Signal;HPM_P1;HPM_P2
2022/02/10 00:35:42;;;;;;;23.52;4.53;;;;;;;4.24;71.65;100052.63;4981957;28;20061;-69
2022/02/10 00:38:08;;;;;;;16.38;2.35;;;;;;;4.27;71.52;100056.94;4981806;28;20086;-69
2022/02/10 00:40:36;;;;;;;27.25;4.10;;;;;;;4.32;71.31;100060.44;4981696;28;20061;-68
2022/02/10 00:43:04;;;;;;;17.50;4.00;;;;;;;4.33;71.07;100054.44;4965405;28;20027;-67
2022/02/10 00:45:32;;;;;;;31.48;3.88;;;;;;;4.38;71.31;100047.66;4981620;28;20031;-69
2022/02/10 00:48:04;;;;;;;26.90;4.38;;;;;;;4.41;71.86;100054.56;4984085;28;20074;-68
2022/02/10 00:50:31;;;;;;;10.02;1.40;;;;;;;4.36;72.12;100048.50;4988199;28;20035;-68
2022/02/10 00:53:03;;;;;;;30.83;3.42;;;;;;;4.29;72.55;100048.41;4988012;28;20495;-68
2022/02/10 00:55:30;;;;;;;;;;;;;;;4.32;73.04;100052.72;4988139;28;20049;-69
2022/02/10 00:57:57;;;;;;;24.60;3.05;;;;;;;4.21;73.04;100040.63;5000906;28;19909;-69
2022/02/10 01:11:19;;;;;;;21.00;2.95;;;;;;;3.93;74.00;100030.00;5049436;28;20036;-69
2022/02/10 01:14:35;;;;;;;17.45;3.50;;;;;;;3.89;74.69;100040.22;5049149;28;20061;-69
2022/02/10 01:30:22;;;;;;;16.15;3.90;;;;;;;3.84;74.94;100024.75;5069833;28;20040;-69
2022/02/10 01:32:52;;;;;;;18.27;3.45;;;;;;;3.83;74.84;100029.00;5069482;28;20028;-69
2022/02/10 01:35:23;;;;;;;33.97;4.38;;;;;;;3.84;75.00;100023.03;5069522;28;20025;-69
2022/02/10 01:37:48;;;;;;;22.92;3.75;;;;;;;3.82;75.14;100027.28;5052049;28;20024;-69
2022/02/10 02:04:41;;;;;;;19.77;3.55;;;;;;;3.80;76.42;100010.16;4984392;28;20074;-69
2022/02/10 02:07:06;;;;;;;28.58;4.63;;;;;;;3.72;76.74;100004.91;4984358;28;20715;-69
2022/02/10 02:09:32;;;;;;;23.30;5.72;;;;;;;3.75;76.68;100004.94;4984282;28;20071;-69
2022/02/10 02:11:57;;;;;;;35.70;5.38;;;;;;;3.72;76.92;100003.19;4984444;28;20023;-69
2022/02/10 02:14:26;;;;;;;21.05;4.55;;;;;;;3.67;77.33;99989.44;4984151;28;20579;-70
2022/02/10 02:16:57;;;;;;;11.95;2.90;;;;;;;3.70;77.49;99996.31;4984352;28;20041;-69
2022/02/10 02:19:23;;;;;;;24.48;4.32;;;;;;;3.68;77.80;100000.56;5001073;28;20047;-69
2022/02/10 02:21:49;;;;;;;18.95;3.92;;;;;;;3.67;77.98;100007.41;5065604;28;20040;-69
2022/02/10 02:24:20;;;;;;;27.70;4.10;;;;;;;3.69;78.05;100010.84;5065224;28;20053;-69
2022/02/10 02:26:48;;;;;;;27.48;5.05;;;;;;;3.73;78.22;100006.63;5047543;28;20017;-69
2022/02/10 02:29:16;;;;;;;20.73;3.85;;;;;;;3.78;78.22;100001.56;5065730;28;20040;-69
2022/02/10 02:31:51;;;;;;;28.45;5.07;;;;;;;3.81;77.88;99993.88;5047423;28;20111;-68
2022/02/10 03:04:25;;;;;;;11.75;2.78;;;;;;;4.07;75.53;99955.66;4983437;28;20038;-69
2022/02/10 03:06:49;;;;;;;16.70;2.60;;;;;;;4.05;75.78;99956.50;4982923;28;20026;-70
2022/02/10 03:09:22;;;;;;;25.48;3.55;;;;;;;4.03;75.59;99942.75;4982898;28;20034;-69
2022/02/10 03:11:47;;;;;;;18.70;3.33;;;;;;;4.09;75.72;99948.84;4982108;28;20027;-70
2022/02/10 03:14:24;;;;;;;26.38;5.20;;;;;;;4.01;75.68;99935.03;4982702;28;20050;-69
2022/02/10 04:01:04;;;;;;;33.80;4.55;;;;;;;3.80;78.49;99922.84;5063833;28;20059;-69
2022/02/10 04:14:32;;;;;;;30.70;4.97;;;;;;;3.82;79.18;99908.28;5063644;28;20085;-69
2022/02/10 04:22:15;;;;;;;31.25;4.63;;;;;;;3.75;78.99;99888.53;5063110;28;20378;-70
2022/02/10 04:38:54;;;;;;;6.32;1.60;;;;;;;3.69;78.10;99903.03;4962361;29;20030;-70
2022/02/10 05:13:45;;;;;;;9.73;1.65;;;;;;;2.32;80.87;99880.56;4981604;28;20041;-71
2022/02/10 05:16:04;;;;;;;9.88;1.58;;;;;;;2.26;81.26;99875.34;4981037;28;20614;-71
2022/02/10 05:31:50;;;;;;;16.95;2.60;;;;;;;2.25;81.44;99871.06;4981037;28;20077;-71
2022/02/10 05:34:10;;;;;;;11.68;2.58;;;;;;;2.29;81.63;99875.41;4980532;28;20038;-71
2022/02/10 05:36:38;;;;;;;9.43;1.20;;;;;;;2.17;81.58;99860.69;4984358;28;20276;-72
2022/02/10 05:39:15;;;;;;;15.73;2.55;;;;;;;2.23;81.79;99873.59;4984764;28;20035;-75
2022/02/10 05:52:34;;;;;;;17.33;3.55;;;;;;;2.36;81.97;99867.00;5066445;28;20042;-73
2022/02/10 05:55:11;;;;;;;17.83;2.88;;;;;;;2.33;81.79;99866.94;5066180;28;20032;-74
2022/02/10 06:54:13;;;;;;;17.98;3.22;;;;;;;2.51;82.64;99865.53;5065616;28;20246;-72
2022/02/10 07:05:26;;;;;;;19.10;3.90;;;;;;;2.65;83.92;99876.81;5065114;28;20052;-73
2022/02/10 07:08:03;;;;;;;10.60;2.63;;;;;;;2.68;83.85;99883.72;5064920;28;20040;-73
2022/02/10 07:13:19;;;;;;;31.40;4.07;;;;;;;2.72;84.21;99888.03;5065109;28;20032;-73
2022/02/10 07:51:38;;;;;;;14.52;2.17;;;;;;;3.27;82.06;99932.44;4943679;29;20044;-72
2022/02/10 07:56:43;;;;;;;18.83;2.53;;;;;;;3.31;81.89;99931.63;4943190;29;20079;-71
2022/02/10 09:19:17;;;;;;;15.63;2.67;;;;;;;6.26;73.20;99909.84;5066845;28;20043;-70
2022/02/10 09:57:07;;;;;;;3.72;0.98;;;;;;;4.06;66.19;99914.53;5065803;28;20067;-70
2022/02/10 10:02:20;;;;;;;7.93;1.50;;;;;;;3.69;68.95;99917.59;5066038;28;20029;-69
2022/02/10 10:05:50;;;;;;;5.72;1.55;;;;;;;3.54;70.25;99920.81;5065665;28;20021;-70
2022/02/10 10:08:23;;;;;;;8.07;2.33;;;;;;;3.40;72.11;99920.63;5055090;28;20037;-71
2022/02/10 10:13:44;;;;;;;12.48;1.92;;;;;;;3.25;73.95;99911.88;5065959;28;20033;-71
2022/02/10 10:27:41;;;;;;;10.25;3.13;;;;;;;4.57;72.40;99896.16;4983622;28;20038;-70
2022/02/10 10:54:13;;;;;;;20.35;4.18;;;;;;;8.10;62.74;99877.53;4983144;28;20093;-69
2022/02/10 10:56:42;;;;;;;10.52;2.15;;;;;;;8.34;61.94;99881.66;4983010;28;20035;-69
2022/02/10 11:41:28;;;;;;;8.88;2.42;;;;;;;9.74;56.90;99834.44;5063691;28;20100;-70
2022/02/10 11:44:19;;;;;;;9.77;2.10;;;;;;;10.29;53.83;99837.06;5063914;28;20017;-69
2022/02/10 13:26:05;;;;;;;7.25;2.30;;;;;;;4.42;73.33;99819.78;5062296;28;20055;-71
2022/02/10 14:09:25;;;;;;;14.32;2.70;;;;;;;4.85;72.19;99819.22;5065999;28;20047;-71
2022/02/10 14:14:47;;;;;;;12.88;2.38;;;;;;;4.81;72.26;99813.19;5065436;28;20116;-71
2022/02/10 14:17:17;;;;;;;15.40;3.38;;;;;;;4.85;72.20;99826.94;5065562;28;20085;-71
2022/02/10 14:19:57;;;;;;;17.20;3.88;;;;;;;4.78;71.90;99830.28;5065643;28;20029;-73
2022/02/10 14:22:37;;;;;;;22.00;2.88;;;;;;;4.82;72.12;99830.31;5065225;28;20048;-71
2022/02/10 14:27:48;;;;;;;11.93;2.55;;;;;;;4.81;71.96;99814.88;5065403;28;20052;-72
2022/02/10 14:30:14;;;;;;;12.43;2.53;;;;;;;4.79;72.11;99817.44;5065291;28;20021;-72
2022/02/10 14:32:43;;;;;;;15.93;3.70;;;;;;;4.79;71.88;99809.72;5065269;28;20120;-72
2022/02/10 14:35:20;;;;;;;24.75;4.18;;;;;;;4.81;71.96;99809.75;5065193;28;20028;-71
2022/02/10 14:40:28;;;;;;;22.55;3.15;;;;;;;4.79;71.98;99806.31;5065137;28;20028;-72
2022/02/10 14:43:29;;;;;;;13.57;3.65;;;;;;;4.81;72.09;99807.16;5065146;28;20029;-72
2022/02/10 15:29:08;;;;;;;22.47;3.63;;;;;;;4.38;70.98;99800.06;5033070;28;20065;-70
2022/02/10 15:49:25;;;;;;;14.38;2.13;;;;;;;4.37;69.86;99799.19;4944298;29;20027;-70
2022/02/10 15:54:45;;;;;;;11.15;2.75;;;;;;;4.31;69.82;99804.28;4944164;29;20035;-71
2022/02/10 16:11:07;;;;;;;18.85;3.53;;;;;;;3.89;70.86;99784.25;4943426;29;20042;-72
2022/02/10 16:19:04;;;;;;;11.73;2.42;;;;;;;3.72;71.83;99797.78;4943347;29;20062;-73
2022/02/10 16:21:36;;;;;;;23.08;2.97;;;;;;;3.66;72.44;99791.75;4978793;28;20047;-72
2022/02/10 16:24:13;;;;;;;15.98;2.25;;;;;;;3.59;73.07;99783.13;5063594;28;20049;-71
2022/02/10 16:26:52;;;;;;;24.35;3.20;;;;;;;3.53;73.24;99788.19;5045406;28;20059;-72
2022/02/10 16:29:18;;;;;;;17.73;2.92;;;;;;;3.50;73.46;99783.03;5062238;28;20047;-73
2022/02/10 16:31:43;;;;;;;17.92;3.30;;;;;;;3.53;73.67;99790.75;5063620;28;20029;-72
2022/02/10 16:34:09;;;;;;;20.92;2.83;;;;;;;3.53;73.66;99783.91;5063096;28;20028;-71
2022/02/10 16:36:34;;;;;;;12.00;2.67;;;;;;;3.56;73.43;99785.66;5045678;28;20065;-71
2022/02/10 16:38:59;;;;;;;9.38;2.55;;;;;;;3.55;72.77;99786.47;5063485;28;20133;-71
2022/02/10 16:41:25;;;;;;;14.15;2.25;;;;;;;3.55;72.41;99779.66;5063019;28;20036;-71
2022/02/10 16:43:51;;;;;;;15.50;3.22;;;;;;;3.58;72.03;99783.94;5063720;28;20028;-72
2022/02/10 16:46:17;;;;;;;10.88;2.38;;;;;;;3.53;71.71;99772.78;5063122;28;20029;-71
2022/02/10 16:48:42;;;;;;;8.98;2.50;;;;;;;3.62;71.65;99778.03;5063119;28;20489;-71
2022/02/10 16:51:10;;;;;;;10.60;3.50;;;;;;;3.62;71.54;99779.72;5063270;28;20027;-71
2022/02/10 16:53:42;;;;;;;15.70;2.40;;;;;;;3.61;71.49;99773.72;5044937;28;20028;-71
2022/02/10 16:56:13;;;;;;;7.57;1.70;;;;;;;3.59;71.37;99780.56;5062717;28;20021;-72
2022/02/10 17:01:35;;;;;;;14.75;3.40;;;;;;;3.55;72.30;99776.22;5063245;28;20051;-71
2022/02/10 17:15:21;;;;;;;9.77;1.63;;;;;;;3.51;73.28;99764.22;5063115;28;20058;-71
2022/02/10 17:25:39;;;;;;;16.23;2.15;;;;;;;3.64;73.26;99772.91;5062457;28;20380;-71
2022/02/10 17:28:07;;;;;;;18.75;2.40;;;;;;;3.69;73.15;99763.53;5044888;28;20036;-71
2022/02/10 17:30:57;;;;;;;5.63;1.65;;;;;;;3.69;73.08;99759.25;5045629;28;20111;-70
2022/02/10 17:46:39;;;;;;;15.45;3.55;;;;;;;3.87;73.58;99765.41;5066297;28;20029;-71
2022/02/10 17:51:59;;;;;;;8.43;2.17;;;;;;;3.87;73.80;99747.41;5066409;28;20036;-71
2022/02/10 17:54:26;;;;;;;14.25;2.97;;;;;;;3.88;74.16;99754.31;5066373;28;20040;-71
2022/02/10 17:56:52;;;;;;;12.93;2.40;;;;;;;3.88;74.38;99756.00;5065974;28;20080;-71
2022/02/10 17:59:20;;;;;;;10.63;3.00;;;;;;;3.83;74.46;99751.66;5066195;28;20052;-70
2022/02/10 18:01:48;;;;;;;15.05;2.10;;;;;;;3.82;74.56;99760.22;5047977;28;20025;-71
2022/02/10 18:04:14;;;;;;;21.25;3.50;;;;;;;3.88;74.54;99771.41;5047874;28;20059;-71
2022/02/10 18:06:42;;;;;;;4.78;2.03;;;;;;;3.88;74.73;99768.84;5047875;28;20025;-72
2022/02/10 18:17:01;;;;;;;14.05;3.30;;;;;;;3.86;74.90;99786.78;5065886;28;20032;-73
2022/02/10 18:19:31;;;;;;;18.10;3.53;;;;;;;3.86;74.73;99796.19;5065909;28;20029;-72
2022/02/10 19:02:03;;;;;;;12.82;2.38;;;;;;;3.86;74.88;99797.06;5065132;28;20059;-72
2022/02/10 19:09:58;;;;;;;18.13;2.88;;;;;;;3.77;74.80;99809.81;5065102;28;20111;-70
2022/02/10 19:12:29;;;;;;;15.90;3.13;;;;;;;3.82;74.76;99815.84;5046740;28;20025;-72
2022/02/10 19:15:05;;;;;;;19.10;2.75;;;;;;;3.84;74.65;99827.00;5064753;28;20029;-71
2022/02/10 19:17:30;;;;;;;18.52;3.60;;;;;;;3.89;74.38;99833.06;5064700;28;20016;-72
2022/02/10 19:19:56;;;;;;;18.05;3.90;;;;;;;3.89;74.21;99834.75;5046768;28;20024;-72
2022/02/10 19:22:21;;;;;;;16.70;3.65;;;;;;;3.89;73.97;99838.19;5064710;28;20017;-72
2022/02/10 19:24:47;;;;;;;14.60;2.75;;;;;;;3.90;73.88;99829.63;5064469;28;20055;-71
2022/02/10 19:27:16;;;;;;;21.02;3.78;;;;;;;3.93;73.48;99832.22;5046470;28;20017;-70
2022/02/10 19:29:41;;;;;;;12.85;2.85;;;;;;;3.92;73.48;99825.38;5064494;28;20032;-71
2022/02/10 19:32:09;;;;;;;9.43;1.60;;;;;;;3.93;73.47;99831.38;5046769;28;20040;-73
2022/02/10 19:34:35;;;;;;;12.10;2.97;;;;;;;3.94;73.38;99826.25;5064283;28;20036;-71
2022/02/10 19:37:01;;;;;;;14.00;2.75;;;;;;;3.94;73.02;99835.66;5046334;28;20020;-72
2022/02/10 19:39:27;;;;;;;5.88;1.85;;;;;;;3.92;72.88;99817.66;5064556;28;20029;-71
2022/02/10 19:41:54;;;;;;;13.10;2.00;;;;;;;3.97;72.89;99827.97;5064068;28;20144;-71
2022/02/10 19:44:20;;;;;;;16.88;3.05;;;;;;;3.92;72.93;99827.94;5046227;28;20257;-70
2022/02/10 19:46:46;;;;;;;9.15;1.67;;;;;;;3.90;73.01;99826.22;5063977;28;20028;-70
2022/02/10 19:49:19;;;;;;;10.68;2.72;;;;;;;3.96;73.27;99839.13;5064260;28;20027;-70
2022/02/10 19:51:47;;;;;;;19.13;3.22;;;;;;;3.91;73.52;99833.94;5063893;28;20056;-70
2022/02/10 19:54:15;;;;;;;27.73;3.80;;;;;;;3.88;73.78;99828.78;5063361;28;20017;-72
2022/02/10 19:56:40;;;;;;;15.32;2.22;;;;;;;3.86;74.00;99835.59;5063705;28;20505;-71
2022/02/10 19:59:07;;;;;;;13.90;2.38;;;;;;;3.90;73.99;99842.47;5046217;28;20032;-71
2022/02/10 20:01:32;;;;;;;9.20;2.40;;;;;;;3.91;73.97;99838.19;5064096;28;20089;-71
2022/02/10 20:04:03;;;;;;;15.80;2.97;;;;;;;3.91;73.76;99849.34;5064080;28;20025;-72
2022/02/10 20:06:28;;;;;;;14.00;2.80;;;;;;;3.95;74.07;99853.66;5063870;28;20029;-70
2022/02/10 20:08:54;;;;;;;19.85;2.50;;;;;;;3.93;73.95;99839.09;5063774;28;20025;-70
2022/02/10 20:11:19;;;;;;;16.00;3.10;;;;;;;3.99;74.01;99853.69;5063650;28;20096;-71
2022/02/10 20:13:44;;;;;;;16.25;3.08;;;;;;;3.92;73.81;99851.06;5063674;28;20032;-71
2022/02/10 20:16:11;;;;;;;9.85;2.20;;;;;;;3.97;74.15;99858.81;5063350;28;20385;-72
2022/02/10 20:18:37;;;;;;;14.45;2.53;;;;;;;3.96;74.24;99851.97;5063727;28;20012;-71
2022/02/10 20:21:04;;;;;;;18.77;3.88;;;;;;;4.05;74.11;99864.88;5045596;28;20055;-72
2022/02/10 20:23:33;;;;;;;14.43;2.92;;;;;;;4.12;73.96;99868.34;5063390;28;20041;-71
2022/02/10 20:25:58;;;;;;;27.65;6.30;;;;;;;4.10;73.95;99867.50;5045164;28;20033;-71
2022/02/10 20:28:25;;;;;;;13.30;2.28;;;;;;;4.11;74.06;99855.50;5063585;28;20021;-69
2022/02/10 20:30:51;;;;;;;28.50;3.42;;;;;;;4.08;74.20;99857.22;5063642;28;20017;-72
2022/02/10 20:33:18;;;;;;;21.77;3.50;;;;;;;4.12;74.15;99865.78;5063406;28;20060;-71
2022/02/10 20:35:46;;;;;;;24.38;4.35;;;;;;;4.14;74.06;99879.50;5063267;28;20021;-71
2022/02/10 20:38:15;;;;;;;14.90;2.92;;;;;;;4.18;73.96;99870.13;5063385;28;20021;-71
2022/02/10 20:40:43;;;;;;;19.33;2.95;;;;;;;4.16;74.03;99872.69;5063028;28;20025;-71
2022/02/10 20:43:09;;;;;;;21.13;3.20;;;;;;;4.10;73.95;99862.38;5063256;28;20017;-72
2022/02/10 20:45:36;;;;;;;17.42;2.85;;;;;;;4.12;73.89;99870.91;5045004;28;20024;-71
2022/02/10 20:48:03;;;;;;;13.35;2.40;;;;;;;4.11;73.94;99876.91;5063186;28;20035;-72
2022/02/10 20:50:30;;;;;;;15.80;2.38;;;;;;;4.15;73.66;99870.09;5063334;28;20029;-72
2022/02/10 20:52:55;;;;;;;15.55;3.05;;;;;;;4.04;73.48;99864.88;5045456;28;20037;-71
2022/02/10 20:55:21;;;;;;;13.75;3.67;;;;;;;4.05;73.26;99885.44;5063394;28;20539;-70
2022/02/10 20:57:46;;;;;;;15.90;2.00;;;;;;;4.04;73.27;99895.69;5063215;28;20469;-70
2022/02/10 21:00:15;;;;;;;14.30;2.63;;;;;;;3.97;72.93;99884.50;5063333;28;20051;-71
2022/02/10 21:02:42;;;;;;;18.42;2.58;;;;;;;4.02;72.71;99899.94;5063192;28;20017;-72
2022/02/10 21:10:27;;;;;;;11.50;2.38;;;;;;;4.03;72.34;99902.53;5067230;28;20056;-71
2022/02/10 21:12:53;;;;;;;11.20;1.98;;;;;;;4.04;72.38;99911.94;5067421;28;20029;-72
2022/02/10 21:15:25;;;;;;;10.00;2.35;;;;;;;4.00;72.15;99901.63;5049038;28;20033;-71
2022/02/10 21:17:56;;;;;;;9.30;3.28;;;;;;;3.92;72.04;99907.56;5049211;28;20021;-70
2022/02/10 21:20:22;;;;;;;13.98;2.70;;;;;;;3.88;71.92;99907.50;5067258;28;20162;-71
2022/02/10 21:22:57;;;;;;;16.58;2.60;;;;;;;3.84;72.01;99904.03;5049048;28;20049;-71
2022/02/10 21:25:24;;;;;;;14.95;2.25;;;;;;;3.82;72.21;99908.28;5066759;28;20037;-71
2022/02/10 21:27:52;;;;;;;14.85;2.35;;;;;;;3.78;72.35;99898.84;5066979;28;20020;-72
2022/02/10 21:30:20;;;;;;;11.57;3.53;;;;;;;3.90;72.14;99913.53;5066804;28;20085;-72
2022/02/10 21:32:53;;;;;;;11.77;2.47;;;;;;;3.82;72.49;99910.84;5066553;28;20025;-72
2022/02/10 21:35:35;;;;;;;6.97;0.93;;;;;;;3.68;73.00;99906.44;5048754;28;20017;-72
2022/02/10 21:38:14;;;;;;;11.90;2.97;;;;;;;3.60;72.98;99902.91;5066825;28;20028;-72
2022/02/10 21:59:57;;;;;;;13.25;2.20;;;;;;;3.40;73.87;99916.38;4984929;28;20026;-71
2022/02/10 22:16:39;;;;;;;15.45;2.15;;;;;;;3.51;74.28;99943.88;4983858;28;20098;-72
2022/02/10 22:19:21;;;;;;;10.98;2.20;;;;;;;3.51;74.24;99944.75;4984291;28;20046;-73
2022/02/10 22:21:47;;;;;;;11.68;2.00;;;;;;;3.55;74.36;99945.63;4982719;28;20066;-73
2022/02/10 22:24:15;;;;;;;9.85;2.40;;;;;;;3.61;74.05;99950.84;4984060;28;20109;-72
2022/02/10 22:26:42;;;;;;;12.70;2.10;;;;;;;3.64;73.99;99952.59;4983955;28;20027;-72
2022/02/10 22:29:19;;;;;;;4.95;1.52;;;;;;;3.59;74.03;99955.09;4984281;28;20259;-72
2022/02/10 22:36:42;;;;;;;14.23;2.42;;;;;;;3.63;73.42;99961.13;5065744;28;20025;-70
2022/02/10 22:39:08;;;;;;;9.02;1.83;;;;;;;3.58;73.48;99954.22;5047818;28;20025;-71
2022/02/10 22:41:33;;;;;;;11.70;1.73;;;;;;;3.50;73.38;99955.84;5065351;28;20032;-71
2022/02/10 22:44:00;;;;;;;5.40;1.58;;;;;;;3.53;73.41;99957.59;5065420;28;20025;-71
2022/02/10 22:46:27;;;;;;;16.10;2.20;;;;;;;3.51;73.23;99954.13;5065277;28;20497;-71
2022/02/10 22:48:52;;;;;;;7.85;1.70;;;;;;;3.47;73.26;99946.41;5065579;28;20031;-70
2022/02/10 22:51:23;;;;;;;12.95;2.20;;;;;;;3.46;73.30;99957.53;5065461;28;20052;-72
2022/02/10 22:53:49;;;;;;;7.83;1.97;;;;;;;3.45;73.38;99958.34;5065050;28;20029;-71
2022/02/10 22:56:17;;;;;;;7.90;1.95;;;;;;;3.45;73.23;99954.94;5065090;28;20071;-65
2022/02/10 22:58:43;;;;;;;8.70;1.92;;;;;;;3.38;73.42;99953.09;5063670;28;20032;-71
2022/02/10 23:01:11;;;;;;;8.95;2.83;;;;;;;3.39;73.16;99950.56;5065218;28;20117;-70
2022/02/10 23:03:38;;;;;;;10.95;2.72;;;;;;;3.40;73.05;99956.56;5065246;28;20028;-70
2022/02/10 23:06:06;;;;;;;7.97;2.60;;;;;;;3.27;73.48;99952.97;5064898;28;20017;-70
2022/02/10 23:08:33;;;;;;;10.40;2.00;;;;;;;3.21;73.18;99952.03;5065077;28;20017;-71
2022/02/10 23:10:58;;;;;;;10.57;3.47;;;;;;;3.18;73.31;99957.09;5064930;28;20031;-72
2022/02/10 23:13:28;;;;;;;14.05;3.05;;;;;;;3.12;73.43;99951.88;5064962;28;20028;-70
2022/02/10 23:15:55;;;;;;;13.80;1.90;;;;;;;3.10;73.39;99946.75;5064715;28;20013;-70
2022/02/10 23:18:26;;;;;;;10.50;1.90;;;;;;;3.10;73.51;99948.44;5064857;28;20035;-70
2022/02/10 23:20:54;;;;;;;13.55;2.50;;;;;;;3.14;73.47;99960.47;5064768;28;20049;-69
2022/02/10 23:23:21;;;;;;;11.23;2.28;;;;;;;3.12;73.39;99957.03;5064374;28;20133;-70
2022/02/10 23:25:48;;;;;;;13.65;2.13;;;;;;;3.10;73.46;99968.94;5064072;28;20021;-70
2022/02/10 23:28:16;;;;;;;14.15;2.72;;;;;;;3.08;73.62;99968.94;5064585;28;20025;-70
2022/02/10 23:30:46;;;;;;;11.55;2.30;;;;;;;3.08;73.62;99968.94;5064608;28;20025;-69
2022/02/10 23:38:23;;;;;;;16.50;1.85;;;;;;;3.08;73.85;99970.66;5064470;28;20049;-70
2022/02/10 23:43:34;;;;;;;10.88;2.22;;;;;;;2.99;74.34;99973.09;5003811;28;20131;-69
2022/02/10 23:46:00;;;;;;;21.00;3.45;;;;;;;2.99;74.35;99978.22;5064080;28;20021;-69
2022/02/10 23:48:27;;;;;;;6.35;2.15;;;;;;;2.91;74.70;99968.69;5064061;28;20032;-69
2022/02/10 23:50:53;;;;;;;12.95;2.45;;;;;;;2.85;74.89;99966.88;5064271;28;20012;-69
2022/02/10 23:53:18;;;;;;;12.23;2.85;;;;;;;2.92;74.75;99983.25;5064108;28;20032;-70
2022/02/10 23:55:45;;;;;;;9.95;2.22;;;;;;;2.87;74.95;99982.28;5045806;28;20017;-70
